createdAt,value
2023-03-05T00:04:30.930Z,18.505859375
2023-03-05T00:14:30.773Z,18.29833984375
2023-03-05T00:24:30.830Z,18.20068359375
2023-03-05T00:34:30.680Z,19.20166015625
2023-03-05T00:44:30.569Z,18.505859375
2023-03-05T00:54:30.497Z,18.701171875
2023-03-05T01:04:30.441Z,19.9951171875
2023-03-05T01:14:30.411Z,19.6044921875
2023-03-05T01:24:30.240Z,19.20166015625
2023-03-05T01:34:30.237Z,18.701171875
2023-03-05T01:44:30.197Z,18.701171875
2023-03-05T01:54:30.053Z,18.896484375
2023-03-05T02:04:30.020Z,18.603515625
2023-03-05T02:14:29.896Z,18.603515625
2023-03-05T02:24:29.837Z,18.701171875
2023-03-05T02:34:29.739Z,18.798828125
2023-03-05T02:44:29.721Z,18.39599609375
2023-03-05T02:54:29.678Z,17.8955078125
2023-03-05T03:04:29.558Z,18.505859375
2023-03-05T03:14:29.539Z,18.00537109375
2023-03-05T03:24:29.378Z,18.39599609375
2023-03-05T03:34:29.379Z,18.00537109375
2023-03-05T03:44:29.280Z,17.7978515625
2023-03-05T03:54:29.228Z,17.6025390625
2023-03-05T04:04:29.422Z,17.29736328125
2023-03-05T04:14:29.138Z,16.796875
2023-03-05T04:24:29.005Z,16.19873046875
2023-03-05T04:34:28.908Z,15.7958984375
2023-03-05T04:44:28.790Z,15.4052734375
2023-03-05T04:54:28.718Z,15.10009765625
2023-03-05T05:04:28.727Z,15.00244140625
2023-03-05T05:14:28.565Z,14.794921875
2023-03-05T05:24:28.496Z,14.404296875
2023-03-05T05:34:28.465Z,14.404296875
2023-03-05T05:44:28.415Z,14.404296875
2023-03-05T05:54:28.342Z,14.19677734375
2023-03-05T06:04:28.232Z,14.19677734375
2023-03-05T06:14:28.149Z,14.00146484375
2023-03-05T06:24:28.165Z,13.90380859375
2023-03-05T06:34:27.998Z,13.7939453125
2023-03-05T06:44:27.974Z,13.5986328125
2023-03-05T06:54:27.908Z,13.5986328125
2023-03-05T07:04:27.801Z,13.4033203125
2023-03-05T07:14:27.832Z,13.4033203125
2023-03-05T07:24:27.785Z,13.4033203125
2023-03-05T07:34:27.600Z,13.3056640625
2023-03-05T07:44:27.600Z,13.19580078125
2023-03-05T07:54:27.429Z,13.09814453125
2023-03-05T08:04:27.384Z,13.00048828125
2023-03-05T08:14:27.374Z,13.00048828125
2023-03-05T08:24:27.291Z,12.80517578125
2023-03-05T08:34:27.157Z,12.80517578125
2023-03-05T08:44:27.129Z,12.80517578125
2023-03-05T08:54:27.021Z,12.6953125
2023-03-05T09:04:26.928Z,12.59765625
2023-03-05T09:14:27.199Z,12.59765625
2023-03-05T09:24:26.808Z,12.59765625
2023-03-05T09:34:26.929Z,12.6953125
2023-03-05T09:44:26.609Z,12.59765625
2023-03-05T09:54:26.617Z,12.6953125
2023-03-05T10:04:26.631Z,12.6953125
2023-03-05T10:14:26.832Z,12.80517578125
2023-03-05T10:24:26.365Z,12.80517578125
2023-03-05T10:34:26.342Z,12.6953125
2023-03-05T10:44:26.250Z,12.59765625
2023-03-05T10:54:26.138Z,12.40234375
2023-03-05T11:04:26.171Z,12.40234375
2023-03-05T11:14:26.082Z,12.298583984375
2023-03-05T11:24:26.105Z,12.09716796875
2023-03-05T11:34:25.817Z,12.09716796875
2023-03-05T11:44:25.777Z,11.99951171875
2023-03-05T11:54:25.728Z,11.99951171875
2023-03-05T12:04:25.717Z,12.09716796875
2023-03-05T12:14:25.616Z,12.09716796875
2023-03-05T12:24:27.986Z,12.09716796875
2023-03-05T12:34:25.505Z,12.09716796875
2023-03-05T12:44:25.419Z,12.298583984375
2023-03-05T12:54:25.303Z,12.298583984375
2023-03-05T13:04:25.242Z,12.40234375
2023-03-05T13:14:25.127Z,12.298583984375
2023-03-05T13:24:25.027Z,12.200927734375
2023-03-05T13:34:26.527Z,12.298583984375
2023-03-05T13:44:25.006Z,12.09716796875
2023-03-05T13:54:25.041Z,11.99951171875
2023-03-05T14:04:24.823Z,11.90185546875
2023-03-05T14:14:24.674Z,11.90185546875
2023-03-05T14:24:24.665Z,11.798095703125
2023-03-05T14:34:24.582Z,11.602783203125
2023-03-05T14:44:24.542Z,11.4013671875
2023-03-05T14:54:24.428Z,11.199951171875
2023-03-05T15:04:24.499Z,10.99853515625
2023-03-05T15:14:24.248Z,10.99853515625
2023-03-05T15:24:24.233Z,10.90087890625
2023-03-05T15:34:24.245Z,10.797119140625
2023-03-05T15:44:24.081Z,10.699462890625
2023-03-05T15:54:23.970Z,10.601806640625
2023-03-05T16:04:24.014Z,10.601806640625
2023-03-05T16:14:23.846Z,10.601806640625
2023-03-05T16:24:23.849Z,10.699462890625
2023-03-05T16:34:23.784Z,10.797119140625
2023-03-05T16:44:23.646Z,10.90087890625
2023-03-05T16:54:23.649Z,10.90087890625
2023-03-05T17:04:23.573Z,10.90087890625
2023-03-05T17:14:23.436Z,10.90087890625
2023-03-05T17:24:23.418Z,10.797119140625
2023-03-05T17:34:33.522Z,10.699462890625
2023-03-05T17:44:23.199Z,10.797119140625
2023-03-05T17:54:23.216Z,10.797119140625
2023-03-05T18:04:23.230Z,10.699462890625
2023-03-05T18:14:23.109Z,10.699462890625
2023-03-05T18:24:22.994Z,10.699462890625
2023-03-05T18:34:22.952Z,10.90087890625
2023-03-05T18:44:22.907Z,10.90087890625
2023-03-05T18:54:22.788Z,10.90087890625
2023-03-05T19:04:22.685Z,10.99853515625
2023-03-05T19:14:22.646Z,11.102294921875
2023-03-05T19:24:22.491Z,11.297607421875
2023-03-05T19:34:22.490Z,11.4990234375
2023-03-05T19:44:22.400Z,11.700439453125
2023-03-05T19:54:22.351Z,11.90185546875
2023-03-05T20:04:22.277Z,11.90185546875
2023-03-05T20:14:22.257Z,12.09716796875
2023-03-05T20:24:22.116Z,11.99951171875
2023-03-05T20:34:22.148Z,11.99951171875
2023-03-05T20:44:22.001Z,11.90185546875
2023-03-05T20:54:21.980Z,11.99951171875
2023-03-05T21:04:21.844Z,12.5
2023-03-05T21:14:21.742Z,12.6953125
2023-03-05T21:24:21.665Z,13.3056640625
2023-03-05T21:34:21.688Z,13.5009765625
2023-03-05T21:44:21.589Z,14.404296875
2023-03-05T21:54:21.441Z,15.4052734375
2023-03-05T22:04:21.376Z,16.39404296875
2023-03-05T22:14:21.298Z,17.10205078125
2023-03-05T22:24:21.223Z,17.10205078125
2023-03-05T22:34:21.121Z,18.20068359375
2023-03-05T22:44:21.713Z,18.39599609375
2023-03-05T22:54:21.055Z,18.505859375
2023-03-05T23:04:20.965Z,19.7998046875
2023-03-05T23:14:20.907Z,18.10302734375
2023-03-05T23:24:20.776Z,17.19970703125
2023-03-05T23:34:20.752Z,17.10205078125
2023-03-05T23:44:20.657Z,17.39501953125
2023-03-05T23:54:20.655Z,17.6025390625
